Harrison, AR

6:36 AM CST on February 24, 2017 (GMT -0600)
Boone County | | Change Station

Elev 1362 ft 36.26 °N, 93.15 °W | Updated 43 minutes ago

Mostly Cloudy
Mostly Cloudy
61 °F
Feels Like 61 °F
N
0
Wind Variable Wind from North

Today
High -- | Low -- °F
--% Chance of Precip.
Yesterday
High -- | Low -- °F
Precip. -- in
Pressure 29.50 in
Visibility 10.0 miles
Clouds Scattered Clouds 3900 ft
Dew Point 53 °F
Humidity 75%
Rainfall 0.00 in
Snow Depth Not available.
6:49 AM 6:02 PM
Waning Crescent, 5% visible
METAR KHRO 241153Z AUTO 00000KT 10SM SCT039 16/12 A2954 RMK AO2 SLP990 T01610117 10194 20150 53011
Pressure 29.50 in
Visibility 10.0 miles
Clouds Scattered Clouds 3900 ft
Dew Point 53 °F
Humidity 75%
Rainfall 0.00 in
Snow Depth Not available.
6:49 AM 6:02 PM
Waning Crescent, 5% visible
METAR KHRO 241153Z AUTO 00000KT 10SM SCT039 16/12 A2954 RMK AO2 SLP990 T01610117 10194 20150 53011

Get Your Daily Forecast Email!

Thanks for signing up!

Be on the lookout for a verification email in your inbox.

You'll start receiving the daily forecast at 8 AM.

×

10-Day Weather Forecast

Almanac

Astronomy

Feb. 24, 2017 Rise Set
Actual Time
Civil Twilight
Nautical Twilight
Astronomical Twilight
Moon
Length of Visible Light
Length of Day
Tomorrow will be .
, % of the Moon is Illuminated

Today's Extremes

State Highs State Lows

Community

WunderPhotos

Upload Photos

1,962,540 photos uploaded!

WunderBlog® & News

Nearby

Air Quality

  Air Quality AQ Index Pollutant
Not available.

Snow Depth

Station Depth Elevation

Earthquake Activity

City Distance Mag. Time & Date
Minimum magnitude displayed is 2.5.

Coastal Water Temperatures

Place Temperature

Stations

Nearby Weather Stations

Station Location Temp. Windchill Dew Point Humidity Wind Precip. Elev Updated Type
                   

Watches & Warnings

There are currently no watches in effect.